createdAt,value
2018-03-02T00:01:11.080Z,-10.60
2018-03-02T00:03:39.370Z,-10.60
2018-03-02T00:06:07.711Z,-10.60
2018-03-02T00:08:36.774Z,-10.60
2018-03-02T00:11:05.111Z,-10.60
2018-03-02T00:13:34.175Z,-10.70
2018-03-02T00:16:02.510Z,-10.70
2018-03-02T00:18:31.567Z,-10.80
2018-03-02T00:20:59.855Z,-10.80
2018-03-02T00:23:28.183Z,-10.70
2018-03-02T00:25:57.295Z,-10.80
2018-03-02T00:28:25.596Z,-10.80
2018-03-02T00:30:54.663Z,-10.90
2018-03-02T00:33:22.993Z,-10.90
2018-03-02T00:35:52.091Z,-10.90
2018-03-02T00:38:20.395Z,-11.00
2018-03-02T00:40:49.751Z,-10.90
2018-03-02T00:43:18.050Z,-10.90
2018-03-02T00:45:46.357Z,-10.90
2018-03-02T00:48:14.954Z,-10.90
2018-03-02T00:50:43.259Z,-10.80
2018-03-02T00:53:11.554Z,-10.80
2018-03-02T00:55:40.659Z,-10.80
2018-03-02T00:58:08.991Z,-10.80
2018-03-02T01:00:37.318Z,-10.90
2018-03-02T01:03:05.646Z,-10.90
2018-03-02T01:05:34.758Z,-10.80
2018-03-02T01:08:03.054Z,-10.90
2018-03-02T01:10:31.379Z,-10.90
2018-03-02T01:12:59.714Z,-11.10
2018-03-02T01:15:28.788Z,-11.20
2018-03-02T01:17:57.122Z,-11.20
2018-03-02T01:20:26.226Z,-11.20
2018-03-02T01:22:55.334Z,-11.20
2018-03-02T01:25:24.430Z,-11.30
2018-03-02T01:27:53.485Z,-11.30
2018-03-02T01:30:21.831Z,-11.40
2018-03-02T01:32:50.894Z,-11.20
2018-03-02T01:35:19.234Z,-11.30
2018-03-02T01:37:48.623Z,-11.30
2018-03-02T01:40:16.921Z,-11.30
2018-03-02T01:42:45.231Z,-11.30
2018-03-02T01:45:14.618Z,-11.40
2018-03-02T01:47:44.534Z,-11.40
2018-03-02T01:50:12.834Z,-11.40
2018-03-02T01:52:41.179Z,-11.40
2018-03-02T01:55:09.478Z,-11.30
2018-03-02T01:57:37.809Z,-11.30
2018-03-02T02:00:06.111Z,-11.30
2018-03-02T02:02:35.210Z,-11.30
2018-03-02T02:05:03.551Z,-11.40
2018-03-02T02:07:31.842Z,-11.40
2018-03-02T02:10:00.134Z,-11.40
2018-03-02T02:12:28.477Z,-11.40
2018-03-02T02:14:57.537Z,-11.40
2018-03-02T02:17:25.871Z,-11.40
2018-03-02T02:19:54.934Z,-11.50
2018-03-02T02:22:23.270Z,-11.50
2018-03-02T02:24:52.337Z,-11.60
2018-03-02T02:27:20.958Z,-11.60
2018-03-02T02:29:49.267Z,-11.60
2018-03-02T02:32:18.335Z,-11.50
2018-03-02T02:34:46.678Z,-11.50
2018-03-02T02:37:15.788Z,-11.60
2018-03-02T02:39:44.904Z,-11.70
2018-03-02T02:42:13.206Z,-11.70
2018-03-02T02:44:41.515Z,-11.70
2018-03-02T02:47:09.843Z,-11.70
2018-03-02T02:49:38.142Z,-11.70
2018-03-02T02:52:07.243Z,-11.70
2018-03-02T02:54:35.538Z,-11.70
2018-03-02T02:57:04.675Z,-11.80
2018-03-02T02:59:32.980Z,-11.80
2018-03-02T03:02:01.302Z,-11.70
2018-03-02T03:04:29.603Z,-11.70
2018-03-02T03:06:57.938Z,-11.80
2018-03-02T03:09:26.238Z,-11.90
2018-03-02T03:11:54.573Z,-11.80
2018-03-02T03:14:22.880Z,-11.80
2018-03-02T03:16:51.947Z,-11.70
2018-03-02T03:19:20.287Z,-11.80
2018-03-02T03:21:48.585Z,-11.70
2018-03-02T03:24:16.891Z,-11.70
2018-03-02T03:26:45.231Z,-11.70
2018-03-02T03:31:48.219Z,-11.60
2018-03-02T03:34:16.542Z,-11.70
2018-03-02T03:36:44.842Z,-11.70
2018-03-02T03:39:13.943Z,-11.70
2018-03-02T03:41:43.751Z,-11.90
2018-03-02T03:44:12.078Z,-11.90
2018-03-02T03:46:41.165Z,-11.90
2018-03-02T03:49:09.490Z,-12.00
2018-03-02T03:51:38.603Z,-12.00
2018-03-02T03:54:07.679Z,-12.00
2018-03-02T03:56:36.012Z,-12.00
2018-03-02T03:59:05.079Z,-12.00
2018-03-02T04:01:33.406Z,-12.00
2018-03-02T04:04:02.794Z,-12.10
2018-03-02T04:06:31.092Z,-12.10
2018-03-02T04:08:59.394Z,-12.20
2018-03-02T04:11:28.746Z,-12.00
2018-03-02T04:13:57.067Z,-12.00
2018-03-02T04:16:25.362Z,-12.00
2018-03-02T04:18:53.696Z,-12.00
2018-03-02T04:21:22.050Z,-11.90
2018-03-02T04:23:50.390Z,-12.00
2018-03-02T04:26:18.686Z,-11.90
2018-03-02T04:28:47.018Z,-12.00
2018-03-02T04:31:15.323Z,-12.10
2018-03-02T04:33:43.646Z,-12.10
2018-03-02T04:36:11.950Z,-12.20
2018-03-02T04:38:40.242Z,-12.20
2018-03-02T04:41:08.573Z,-12.10
2018-03-02T04:43:37.674Z,-12.20
2018-03-02T04:46:05.975Z,-12.20
2018-03-02T04:48:35.070Z,-12.10
2018-03-02T04:51:04.919Z,-12.10
2018-03-02T04:53:33.983Z,-12.10
2018-03-02T04:56:02.318Z,-12.20
2018-03-02T04:58:31.388Z,-12.20
2018-03-02T05:00:59.714Z,-12.20
2018-03-02T05:03:28.782Z,-12.10
2018-03-02T05:05:57.129Z,-12.10
2018-03-02T05:08:25.422Z,-12.10
2018-03-02T05:10:53.718Z,-12.10
2018-03-02T05:13:22.050Z,-12.00
2018-03-02T05:15:50.350Z,-11.90
2018-03-02T05:18:18.686Z,-12.10
2018-03-02T05:20:46.987Z,-12.20
2018-03-02T05:23:15.323Z,-12.30
2018-03-02T05:25:43.631Z,-12.20
2018-03-02T05:28:12.738Z,-12.30
2018-03-02T05:30:41.840Z,-12.30
2018-03-02T05:33:10.894Z,-12.30
2018-03-02T05:35:39.230Z,-12.30
2018-03-02T05:38:08.300Z,-12.40
2018-03-02T05:40:36.587Z,-12.40
2018-03-02T05:43:04.924Z,-12.40
2018-03-02T05:45:34.035Z,-12.50
2018-03-02T05:48:03.091Z,-12.60
2018-03-02T05:50:31.381Z,-12.60
2018-03-02T05:52:59.710Z,-12.70
2018-03-02T05:55:29.102Z,-12.70
2018-03-02T05:57:57.407Z,-12.80
2018-03-02T06:00:25.694Z,-12.60
2018-03-02T06:02:54.031Z,-12.60
2018-03-02T06:05:22.335Z,-12.70
2018-03-02T06:07:50.674Z,-12.70
2018-03-02T06:10:19.733Z,-12.70
2018-03-02T06:12:48.040Z,-12.70
2018-03-02T06:15:16.370Z,-12.60
2018-03-02T06:17:45.465Z,-12.80
2018-03-02T06:20:13.745Z,-12.80
2018-03-02T06:22:42.120Z,-12.70
2018-03-02T06:25:10.415Z,-12.80
2018-03-02T06:27:38.742Z,-12.90
2018-03-02T06:30:07.838Z,-12.70
2018-03-02T06:32:36.902Z,-12.60
2018-03-02T06:35:05.199Z,-12.60
2018-03-02T06:37:33.540Z,-12.50
2018-03-02T06:40:02.601Z,-12.30
2018-03-02T06:42:30.967Z,-12.40
2018-03-02T06:44:59.267Z,-12.30
2018-03-02T06:47:27.566Z,-12.40
2018-03-02T06:49:55.901Z,-12.30
2018-03-02T06:52:24.962Z,-12.40
2018-03-02T06:54:53.295Z,-12.40
2018-03-02T06:57:22.355Z,-12.20
2018-03-02T06:59:50.651Z,-12.20
2018-03-02T07:02:18.987Z,-12.00
2018-03-02T07:04:48.046Z,-11.90
2018-03-02T07:07:16.339Z,-11.90
2018-03-02T07:09:44.675Z,-11.80
2018-03-02T07:12:13.771Z,-11.90
2018-03-02T07:14:42.868Z,-11.90
2018-03-02T07:17:11.982Z,-11.90
2018-03-02T07:19:40.246Z,-12.00
2018-03-02T07:22:08.574Z,-11.80
2018-03-02T07:24:37.962Z,-11.50
2018-03-02T07:27:06.261Z,-11.50
2018-03-02T07:29:34.557Z,-11.40
2018-03-02T07:32:03.661Z,-11.20
2018-03-02T07:34:32.247Z,-11.30
2018-03-02T07:37:00.545Z,-11.10
2018-03-02T07:39:29.610Z,-11.30
2018-03-02T07:41:57.933Z,-11.30
2018-03-02T07:44:26.244Z,-11.00
2018-03-02T07:46:55.342Z,-11.10
2018-03-02T07:49:24.405Z,-11.00
2018-03-02T07:51:52.729Z,-11.00
2018-03-02T07:54:21.030Z,-10.80
2018-03-02T07:56:50.425Z,-10.70
2018-03-02T07:59:18.721Z,-10.70
2018-03-02T08:01:47.029Z,-10.70
2018-03-02T08:04:16.137Z,-10.50
2018-03-02T08:06:45.203Z,-10.20
2018-03-02T08:09:13.538Z,-10.20
2018-03-02T08:11:42.634Z,-10.00
2018-03-02T08:14:11.736Z,-9.90
2018-03-02T08:16:40.026Z,-9.90
2018-03-02T08:19:09.270Z,-9.70
2018-03-02T08:21:37.607Z,-9.70
2018-03-02T08:24:05.894Z,-9.40
2018-03-02T08:26:34.227Z,-9.50
2018-03-02T08:29:03.381Z,-9.40
2018-03-02T08:31:31.670Z,-9.40
2018-03-02T08:33:59.990Z,-9.30
2018-03-02T08:36:28.318Z,-9.20
2018-03-02T08:38:56.615Z,-9.20
2018-03-02T08:41:25.267Z,-9.10
2018-03-02T08:43:53.562Z,-9.10
2018-03-02T08:46:21.850Z,-9.00
2018-03-02T08:48:50.187Z,-8.90
2018-03-02T08:51:18.516Z,-8.90
2018-03-02T08:53:46.807Z,-8.70
2018-03-02T08:56:15.098Z,-8.70
2018-03-02T08:58:43.431Z,-8.70
2018-03-02T09:01:11.722Z,-8.60
2018-03-02T09:03:40.058Z,-8.50
2018-03-02T09:06:08.381Z,-8.20
2018-03-02T09:08:37.474Z,-7.80
2018-03-02T09:11:05.775Z,-7.90
2018-03-02T09:13:34.876Z,-8.10
2018-03-02T09:16:03.933Z,-8.00
2018-03-02T09:18:32.266Z,-8.00
2018-03-02T09:21:00.594Z,-7.90
2018-03-02T09:23:28.923Z,-7.60
2018-03-02T09:25:57.246Z,-7.70
2018-03-02T09:28:26.310Z,-7.40
2018-03-02T09:30:54.943Z,-7.30
2018-03-02T09:33:24.002Z,-7.10
2018-03-02T09:35:52.306Z,-7.10
2018-03-02T09:38:20.626Z,-7.30
2018-03-02T09:40:50.466Z,-6.60
2018-03-02T09:43:19.514Z,-6.60
2018-03-02T09:45:47.813Z,-6.70
2018-03-02T09:48:16.322Z,-6.60
2018-03-02T09:50:44.589Z,-6.90
2018-03-02T09:53:12.887Z,-7.00
2018-03-02T09:55:41.210Z,-7.00
2018-03-02T09:58:09.539Z,-6.60
2018-03-02T10:00:37.830Z,-6.20
2018-03-02T10:03:06.160Z,-6.30
2018-03-02T10:05:34.479Z,-6.50
2018-03-02T10:08:03.538Z,-6.30
2018-03-02T10:10:31.875Z,-6.40
2018-03-02T10:13:00.958Z,-6.20
2018-03-02T10:15:29.284Z,-6.20
2018-03-02T10:17:57.589Z,-6.00
2018-03-02T10:20:25.910Z,-5.90
2018-03-02T10:22:54.210Z,-6.30
2018-03-02T10:25:23.302Z,-6.70
2018-03-02T10:27:51.718Z,-6.70
2018-03-02T10:30:20.010Z,-6.40
2018-03-02T10:32:48.346Z,-6.00
2018-03-02T10:35:16.633Z,-5.90
2018-03-02T10:37:44.970Z,-6.20
2018-03-02T10:40:13.266Z,-5.80
2018-03-02T10:42:41.598Z,-5.70
2018-03-02T10:45:09.935Z,-5.80
2018-03-02T10:47:38.231Z,-5.90
2018-03-02T10:50:06.554Z,-5.80
2018-03-02T10:52:35.614Z,-5.70
2018-03-02T10:55:03.938Z,-5.70
2018-03-02T10:57:32.267Z,-5.60
2018-03-02T11:00:00.560Z,-5.30
2018-03-02T11:02:29.166Z,-5.30
2018-03-02T11:05:03.154Z,-5.40
2018-03-02T11:07:32.246Z,-5.30
2018-03-02T11:10:00.569Z,-5.30
2018-03-02T11:12:28.902Z,-5.30
2018-03-02T11:14:57.223Z,-5.00
2018-03-02T11:17:26.311Z,-5.40
2018-03-02T11:19:54.634Z,-5.40
2018-03-02T11:22:22.926Z,-5.30
2018-03-02T11:24:51.255Z,-5.40
2018-03-02T11:27:19.542Z,-5.20
2018-03-02T11:29:47.866Z,-5.30
2018-03-02T11:32:16.246Z,-5.00
2018-03-02T11:34:44.580Z,-5.00
2018-03-02T11:37:12.870Z,-4.90
2018-03-02T11:39:41.195Z,-4.60
2018-03-02T11:42:09.491Z,-4.80
2018-03-02T11:44:37.819Z,-4.90
2018-03-02T11:47:06.915Z,-4.70
2018-03-02T11:49:35.190Z,-4.70
2018-03-02T11:52:03.510Z,-4.60
2018-03-02T11:54:32.570Z,-5.10
2018-03-02T11:57:00.907Z,-5.10
2018-03-02T11:59:29.961Z,-4.50
2018-03-02T12:01:58.293Z,-4.50
2018-03-02T12:04:26.583Z,-4.90
2018-03-02T12:06:55.642Z,-4.80
2018-03-02T12:09:24.238Z,-4.80
2018-03-02T12:11:52.522Z,-4.80
2018-03-02T12:14:20.833Z,-5.10
2018-03-02T12:16:49.186Z,-5.00
2018-03-02T12:19:18.222Z,-4.90
2018-03-02T12:21:46.545Z,-4.90
2018-03-02T12:24:14.842Z,-4.70
2018-03-02T12:26:43.894Z,-4.90
2018-03-02T12:29:12.231Z,-4.90
2018-03-02T12:31:40.527Z,-4.90
2018-03-02T12:34:09.619Z,-4.70
2018-03-02T12:36:38.006Z,-4.70
2018-03-02T12:39:06.264Z,-4.50
2018-03-02T12:41:34.594Z,-4.50
2018-03-02T12:44:02.987Z,-4.40
2018-03-02T12:46:31.312Z,-4.60
2018-03-02T12:48:59.602Z,-4.40
2018-03-02T12:51:27.940Z,-4.20
2018-03-02T12:53:56.265Z,-4.00
2018-03-02T12:56:25.318Z,-3.90
2018-03-02T12:58:53.646Z,-4.00
2018-03-02T13:01:21.935Z,-4.00
2018-03-02T13:03:50.261Z,-3.80
2018-03-02T13:06:18.554Z,-4.00
2018-03-02T13:08:46.879Z,-4.00
2018-03-02T13:11:15.167Z,-3.70
2018-03-02T13:13:43.498Z,-4.00
2018-03-02T13:16:12.560Z,-3.80
2018-03-02T13:18:42.658Z,-3.80
2018-03-02T13:21:10.992Z,-3.70
2018-03-02T13:23:39.282Z,-3.80
2018-03-02T13:26:07.614Z,-3.80
2018-03-02T13:28:47.903Z,-3.40
2018-03-02T13:31:16.233Z,-3.60
2018-03-02T13:33:56.535Z,-4.00
2018-03-02T13:36:25.631Z,-3.70
2018-03-02T13:38:54.719Z,-3.70
2018-03-02T13:41:34.858Z,-3.70
2018-03-02T13:44:03.186Z,-3.80
2018-03-02T13:46:31.478Z,-3.90
2018-03-02T13:49:11.542Z,-3.90
2018-03-02T13:51:39.875Z,-3.80
2018-03-02T13:54:08.175Z,-3.90
2018-03-02T13:56:48.256Z,-4.00
2018-03-02T13:59:16.546Z,-3.90
2018-03-02T14:01:44.878Z,-3.90
2018-03-02T14:04:25.961Z,-3.80
2018-03-02T14:06:54.294Z,-3.80
2018-03-02T14:09:22.624Z,-4.00
2018-03-02T14:11:50.943Z,-4.10
2018-03-02T14:14:20.007Z,-4.00
2018-03-02T14:16:48.334Z,-4.00
2018-03-02T14:19:16.626Z,-4.00
2018-03-02T14:21:45.719Z,-3.90
2018-03-02T14:24:14.028Z,-3.90
2018-03-02T14:26:43.122Z,-3.80
2018-03-02T14:29:11.458Z,-3.80
2018-03-02T14:31:39.741Z,-3.90
2018-03-02T14:34:08.947Z,-3.90
2018-03-02T14:36:37.230Z,-3.90
2018-03-02T14:39:06.295Z,-3.90
2018-03-02T14:41:34.623Z,-3.90
2018-03-02T14:44:03.712Z,-3.80
2018-03-02T14:46:32.007Z,-3.80
2018-03-02T14:49:01.113Z,-3.90
2018-03-02T14:51:30.208Z,-4.00
2018-03-02T14:53:58.498Z,-4.00
2018-03-02T14:56:26.795Z,-3.90
2018-03-02T14:58:55.893Z,-3.90
2018-03-02T15:01:24.859Z,-4.00
2018-03-02T15:03:53.146Z,-4.10
2018-03-02T15:06:21.471Z,-4.10
2018-03-02T15:08:49.789Z,-4.10
2018-03-02T15:11:18.852Z,-4.20
2018-03-02T15:13:47.174Z,-4.20
2018-03-02T15:16:15.463Z,-4.20
2018-03-02T15:18:44.070Z,-4.20
2018-03-02T15:21:13.136Z,-4.00
2018-03-02T15:23:41.429Z,-4.10
2018-03-02T15:26:09.757Z,-4.10
2018-03-02T15:28:38.814Z,-4.10
2018-03-02T15:31:07.102Z,-4.10
2018-03-02T15:33:35.586Z,-4.00
2018-03-02T15:36:03.874Z,-3.90
2018-03-02T15:38:32.205Z,-4.00
2018-03-02T15:41:00.521Z,-4.20
2018-03-02T15:43:28.809Z,-4.20
2018-03-02T15:45:58.190Z,-4.30
2018-03-02T15:48:26.591Z,-4.30
2018-03-02T15:50:54.874Z,-4.50
2018-03-02T15:53:23.202Z,-4.50
2018-03-02T15:55:51.577Z,-4.40
2018-03-02T15:58:19.846Z,-4.40
2018-03-02T16:00:48.175Z,-4.40
2018-03-02T16:03:16.517Z,-4.50
2018-03-02T16:05:44.815Z,-4.60
2018-03-02T16:08:13.142Z,-4.60
2018-03-02T16:10:41.426Z,-4.60
2018-03-02T16:13:09.753Z,-4.60
2018-03-02T16:15:38.044Z,-4.50
2018-03-02T16:18:06.657Z,-4.50
2018-03-02T16:20:34.950Z,-4.60
2018-03-02T16:23:03.267Z,-4.60
2018-03-02T16:25:32.370Z,-4.70
2018-03-02T16:28:01.470Z,-4.70
2018-03-02T16:30:29.795Z,-4.70
2018-03-02T16:32:58.127Z,-4.70
2018-03-02T16:35:26.466Z,-4.70
2018-03-02T16:37:54.900Z,-4.80
2018-03-02T16:40:23.183Z,-4.80
2018-03-02T16:42:51.523Z,-4.90
2018-03-02T16:45:20.619Z,-4.80
2018-03-02T16:47:50.459Z,-4.80
2018-03-02T16:50:19.509Z,-4.90
2018-03-02T16:52:47.839Z,-4.90
2018-03-02T16:55:16.538Z,-5.00
2018-03-02T16:57:44.830Z,-5.00
2018-03-02T17:00:13.163Z,-5.00
2018-03-02T17:02:42.240Z,-5.00
2018-03-02T17:05:11.325Z,-5.10
2018-03-02T17:07:39.649Z,-5.10
2018-03-02T17:10:08.703Z,-5.20
2018-03-02T17:12:37.031Z,-5.20
2018-03-02T17:15:06.124Z,-5.30
2018-03-02T17:17:34.456Z,-5.30
2018-03-02T17:20:02.742Z,-5.30
2018-03-02T17:22:31.232Z,-5.30
2018-03-02T17:25:00.401Z,-5.30
2018-03-02T17:27:28.696Z,-5.30
2018-03-02T17:29:57.754Z,-5.40
2018-03-02T17:32:26.080Z,-5.40
2018-03-02T17:34:55.883Z,-5.40
2018-03-02T17:37:24.219Z,-5.40
2018-03-02T17:39:52.525Z,-5.40
2018-03-02T17:42:21.623Z,-5.50
2018-03-02T17:44:50.685Z,-5.70
2018-03-02T17:47:18.970Z,-5.70
2018-03-02T17:49:47.290Z,-5.70
2018-03-02T17:52:15.879Z,-5.80
2018-03-02T17:54:45.670Z,-5.70
2018-03-02T17:57:13.973Z,-5.70
2018-03-02T17:59:42.284Z,-5.80
2018-03-02T18:02:10.674Z,-5.80
2018-03-02T18:04:38.971Z,-5.80
2018-03-02T18:07:07.304Z,-5.80
2018-03-02T18:09:35.603Z,-5.80
2018-03-02T18:12:03.931Z,-5.80
2018-03-02T18:14:32.227Z,-5.90
2018-03-02T18:17:00.554Z,-5.90
2018-03-02T18:19:28.846Z,-5.80
2018-03-02T18:21:57.137Z,-5.90
2018-03-02T18:24:25.504Z,-6.00
2018-03-02T18:26:53.788Z,-6.20
2018-03-02T18:29:22.882Z,-6.20
2018-03-02T18:31:51.583Z,-6.20
2018-03-02T18:34:19.874Z,-6.20
2018-03-02T18:36:48.253Z,-6.20
2018-03-02T18:39:18.086Z,-6.30
2018-03-02T18:41:46.373Z,-6.30
2018-03-02T18:44:14.712Z,-6.30
2018-03-02T18:46:43.014Z,-6.30
2018-03-02T18:49:11.347Z,-6.40
2018-03-02T18:51:39.943Z,-6.50
2018-03-02T18:54:08.239Z,-6.40
2018-03-02T18:56:36.584Z,-6.40
2018-03-02T18:59:04.939Z,-6.50
2018-03-02T19:01:34.003Z,-6.60
2018-03-02T19:04:02.611Z,-6.60
2018-03-02T19:06:30.906Z,-6.60
2018-03-02T19:08:59.199Z,-6.60
2018-03-02T19:11:27.539Z,-6.60
2018-03-02T19:13:55.830Z,-6.60
2018-03-02T19:16:24.179Z,-6.60
2018-03-02T19:18:53.234Z,-6.70
2018-03-02T19:21:21.584Z,-6.70
2018-03-02T19:23:50.638Z,-6.60
2018-03-02T19:26:18.938Z,-6.70
2018-03-02T19:28:47.285Z,-6.60
2018-03-02T19:31:15.723Z,-6.70
2018-03-02T19:33:44.015Z,-6.70
2018-03-02T19:36:12.342Z,-6.70
2018-03-02T19:38:41.430Z,-6.80
2018-03-02T19:41:09.750Z,-6.80
2018-03-02T19:43:38.047Z,-6.80
2018-03-02T19:46:06.376Z,-6.80
2018-03-02T19:48:34.702Z,-6.80
2018-03-02T19:51:03.796Z,-6.90
2018-03-02T19:53:33.600Z,-7.00
2018-03-02T19:56:01.945Z,-7.00
2018-03-02T19:58:30.239Z,-7.00
2018-03-02T20:00:58.534Z,-7.00
2018-03-02T20:03:27.178Z,-7.10
2018-03-02T20:05:55.557Z,-7.10
2018-03-02T20:08:23.852Z,-7.10
2018-03-02T20:10:52.458Z,-7.10
2018-03-02T20:13:20.750Z,-7.20
2018-03-02T20:15:49.135Z,-7.30
2018-03-02T20:18:18.974Z,-7.40
2018-03-02T20:20:48.042Z,-7.30
2018-03-02T20:23:16.371Z,-7.30
2018-03-02T20:25:44.705Z,-7.30
2018-03-02T20:28:13.014Z,-7.40
2018-03-02T20:30:41.342Z,-7.40
2018-03-02T20:33:09.676Z,-7.50
2018-03-02T20:35:37.958Z,-7.50
2018-03-02T20:38:06.289Z,-7.50
2018-03-02T20:40:34.894Z,-7.40
2018-03-02T20:43:04.690Z,-7.50
2018-03-02T20:45:32.986Z,-7.50
2018-03-02T20:48:01.322Z,-7.50
2018-03-02T20:50:30.414Z,-7.70
2018-03-02T20:52:58.701Z,-7.70
2018-03-02T20:55:27.026Z,-7.70
2018-03-02T20:57:55.328Z,-7.70
2018-03-02T21:00:23.676Z,-7.70
2018-03-02T21:02:51.979Z,-7.70
2018-03-02T21:05:21.034Z,-7.60
2018-03-02T21:07:49.357Z,-7.60
2018-03-02T21:10:17.642Z,-7.70
2018-03-02T21:12:46.235Z,-7.80
2018-03-02T21:15:14.527Z,-7.80
2018-03-02T21:17:42.823Z,-7.80
2018-03-02T21:20:11.167Z,-7.80
2018-03-02T21:22:39.798Z,-7.80
2018-03-02T21:25:08.098Z,-7.80
2018-03-02T21:27:36.400Z,-7.90
2018-03-02T21:30:05.530Z,-8.00
2018-03-02T21:32:33.854Z,-8.00
2018-03-02T21:35:02.263Z,-8.00
2018-03-02T21:37:30.630Z,-8.10
2018-03-02T21:39:58.968Z,-8.20
2018-03-02T21:42:28.118Z,-8.10
2018-03-02T21:44:56.638Z,-8.10
2018-03-02T21:47:24.962Z,-8.10
2018-03-02T21:49:54.022Z,-8.20
2018-03-02T21:52:23.873Z,-8.20
2018-03-02T21:54:52.177Z,-8.20
2018-03-02T21:57:20.497Z,-8.30
2018-03-02T21:59:48.830Z,-8.40
2018-03-02T22:02:17.168Z,-8.40
2018-03-02T22:04:45.462Z,-8.50
2018-03-02T22:07:13.750Z,-8.50
2018-03-02T22:09:42.074Z,-8.60
2018-03-02T22:12:10.359Z,-8.60
2018-03-02T22:14:38.687Z,-8.60
2018-03-02T22:17:06.973Z,-8.70
2018-03-02T22:19:35.266Z,-8.70
2018-03-02T22:22:03.954Z,-8.60
2018-03-02T22:24:32.241Z,-8.60
2018-03-02T22:27:00.570Z,-8.60
2018-03-02T22:29:29.747Z,-8.70
2018-03-02T22:31:58.043Z,-8.70
2018-03-02T22:34:26.362Z,-8.70
2018-03-02T22:36:54.686Z,-8.80
2018-03-02T22:39:22.987Z,-8.90
2018-03-02T22:41:51.319Z,-8.80
2018-03-02T22:44:19.609Z,-8.80
2018-03-02T22:46:48.683Z,-8.90
2018-03-02T22:49:17.002Z,-8.90
2018-03-02T22:51:46.062Z,-9.00
2018-03-02T22:54:14.375Z,-9.00
2018-03-02T22:56:42.710Z,-9.00
2018-03-02T22:59:11.034Z,-9.10
2018-03-02T23:01:39.355Z,-9.10
2018-03-02T23:04:07.687Z,-9.10
2018-03-02T23:06:35.974Z,-9.10
2018-03-02T23:09:04.303Z,-9.10
2018-03-02T23:11:32.595Z,-9.10
2018-03-02T23:14:00.916Z,-9.20
2018-03-02T23:16:30.011Z,-9.20
2018-03-02T23:18:58.573Z,-9.20
2018-03-02T23:21:26.872Z,-9.10
2018-03-02T23:23:55.169Z,-9.10
2018-03-02T23:26:23.507Z,-9.20
2018-03-02T23:28:51.799Z,-9.20
2018-03-02T23:31:20.122Z,-9.10
2018-03-02T23:33:48.442Z,-9.20
2018-03-02T23:36:16.770Z,-9.30
2018-03-02T23:38:45.209Z,-9.30
2018-03-02T23:41:13.503Z,-9.30
2018-03-02T23:43:41.801Z,-9.40
2018-03-02T23:46:10.122Z,-9.40
2018-03-02T23:48:38.445Z,-9.50
2018-03-02T23:51:06.734Z,-9.50
2018-03-02T23:53:35.058Z,-9.40
2018-03-02T23:56:03.386Z,-9.40
2018-03-02T23:58:31.699Z,-9.40
